createdAt,value
2019-05-02T00:01:58.301Z,9.00
2019-05-02T00:04:27.096Z,9.27
2019-05-02T00:07:06.079Z,8.70
2019-05-02T00:09:36.734Z,9.70
2019-05-02T00:12:09.807Z,9.17
2019-05-02T00:14:38.786Z,9.17
2019-05-02T00:17:08.791Z,8.83
2019-05-02T00:19:38.232Z,9.23
2019-05-02T00:22:26.137Z,8.47
2019-05-02T00:24:54.738Z,9.33
2019-05-02T00:27:23.367Z,9.30
2019-05-02T00:29:53.889Z,9.67
2019-05-02T00:32:23.546Z,9.23
2019-05-02T00:34:52.207Z,9.47
2019-05-02T00:37:24.637Z,10.17
2019-05-02T00:39:50.969Z,9.60
2019-05-02T00:42:22.521Z,8.90
2019-05-02T00:44:49.723Z,9.43
2019-05-02T00:47:20.442Z,8.53
2019-05-02T00:49:48.992Z,8.90
2019-05-02T00:52:17.536Z,8.13
2019-05-02T00:54:46.097Z,7.97
2019-05-02T00:57:14.970Z,6.70
2019-05-02T00:59:44.844Z,7.10
2019-05-02T01:02:20.994Z,6.40
2019-05-02T01:04:50.893Z,6.20
2019-05-02T01:07:20.451Z,5.37
2019-05-02T01:09:49.878Z,4.93
2019-05-02T01:12:26.202Z,6.00
2019-05-02T01:14:48.682Z,4.60
2019-05-02T01:17:17.320Z,4.90
2019-05-02T01:19:47.174Z,4.97
2019-05-02T01:22:17.283Z,4.47
2019-05-02T01:24:45.974Z,4.57
2019-05-02T01:27:24.902Z,4.63
2019-05-02T01:30:01.502Z,4.83
2019-05-02T01:32:30.255Z,4.63
2019-05-02T01:35:04.521Z,4.80
2019-05-02T01:37:54.512Z,4.67
2019-05-02T01:40:21.366Z,4.40
2019-05-02T01:42:51.091Z,4.50
2019-05-02T01:45:19.886Z,4.67
2019-05-02T01:47:48.445Z,4.07
2019-05-02T01:50:17.008Z,4.23
2019-05-02T01:52:45.554Z,4.00
2019-05-02T01:55:16.957Z,4.10
2019-05-02T01:57:44.769Z,3.83
2019-05-02T02:00:14.894Z,3.60
2019-05-02T02:02:43.445Z,4.00
2019-05-02T02:05:12.442Z,3.97
2019-05-02T02:07:41.018Z,3.87
2019-05-02T02:10:09.613Z,3.87
2019-05-02T02:12:41.222Z,3.43
2019-05-02T02:15:09.229Z,3.97
2019-05-02T02:17:37.814Z,3.60
2019-05-02T02:20:09.850Z,3.67
2019-05-02T02:22:53.210Z,3.30
2019-05-02T02:25:37.524Z,2.73
2019-05-02T02:28:06.875Z,3.87
2019-05-02T02:30:35.491Z,3.13
2019-05-02T02:33:07.815Z,3.47
2019-05-02T02:35:34.673Z,3.30
2019-05-02T02:38:03.307Z,3.40
2019-05-02T02:40:33.600Z,3.27
2019-05-02T02:43:12.444Z,3.40
2019-05-02T02:48:20.864Z,3.17
2019-05-02T02:50:49.597Z,3.53
2019-05-02T02:53:30.115Z,3.00
2019-05-02T02:56:04.337Z,2.80
2019-05-02T02:58:44.089Z,2.93
2019-05-02T03:01:05.191Z,2.83
2019-05-02T03:03:35.445Z,2.80
2019-05-02T03:06:07.528Z,2.67
2019-05-02T03:08:44.556Z,2.67
2019-05-02T03:11:05.667Z,3.23
2019-05-02T03:13:52.361Z,2.67
2019-05-02T03:16:16.440Z,3.03
2019-05-02T03:18:45.057Z,2.70
2019-05-02T03:21:20.416Z,2.80
2019-05-02T03:23:44.790Z,2.40
2019-05-02T03:26:15.745Z,2.93
2019-05-02T03:28:43.921Z,2.70
2019-05-02T03:31:23.601Z,2.33
2019-05-02T03:33:54.214Z,2.57
2019-05-02T03:36:28.550Z,2.47
2019-05-02T03:38:44.089Z,2.37
2019-05-02T03:41:20.009Z,2.30
2019-05-02T03:43:43.257Z,2.43
2019-05-02T03:46:13.749Z,2.27
2019-05-02T03:48:41.943Z,2.10
2019-05-02T03:51:19.653Z,2.20
2019-05-02T03:53:41.541Z,2.00
2019-05-02T03:56:11.465Z,2.03
2019-05-02T03:58:40.416Z,2.10
2019-05-02T04:01:09.635Z,2.20
2019-05-02T04:03:40.798Z,1.73
2019-05-02T04:06:14.111Z,1.93
2019-05-02T04:08:41.418Z,1.80
2019-05-02T04:11:22.029Z,2.37
2019-05-02T04:13:52.899Z,2.13
2019-05-02T04:16:22.726Z,1.87
2019-05-02T04:18:56.110Z,1.40
2019-05-02T04:21:26.070Z,2.13
2019-05-02T04:23:54.038Z,1.73
2019-05-02T04:26:22.608Z,1.83
2019-05-02T04:28:52.110Z,1.70
2019-05-02T04:31:24.599Z,1.73
2019-05-02T04:33:51.722Z,1.60
2019-05-02T04:36:20.299Z,1.40
2019-05-02T04:38:52.522Z,1.73
2019-05-02T04:41:28.762Z,1.60
2019-05-02T04:43:55.928Z,1.60
2019-05-02T04:46:27.085Z,1.70
2019-05-02T04:48:52.863Z,1.60
2019-05-02T04:51:20.835Z,1.67
2019-05-02T04:53:50.116Z,1.83
2019-05-02T04:56:19.229Z,1.80
2019-05-02T04:58:49.551Z,1.90
2019-05-02T05:01:21.057Z,1.50
2019-05-02T05:03:57.380Z,1.67
2019-05-02T05:06:19.152Z,1.60
2019-05-02T05:08:48.269Z,2.10
2019-05-02T05:11:20.745Z,2.07
2019-05-02T05:13:47.937Z,1.47
2019-05-02T05:16:18.477Z,1.60
2019-05-02T05:18:49.389Z,1.80
2019-05-02T05:21:17.864Z,1.37
2019-05-02T05:23:51.824Z,1.50
2019-05-02T05:26:19.526Z,1.50
2019-05-02T05:28:48.070Z,1.53
2019-05-02T05:31:23.804Z,1.70
2019-05-02T05:33:47.881Z,1.60
2019-05-02T05:36:19.769Z,1.50
2019-05-02T05:38:47.826Z,1.40
2019-05-02T05:41:22.734Z,1.60
2019-05-02T05:44:01.759Z,1.77
2019-05-02T05:46:33.281Z,1.50
2019-05-02T05:49:03.006Z,1.53
2019-05-02T05:51:31.563Z,1.57
2019-05-02T05:54:03.097Z,1.60
2019-05-02T05:56:32.484Z,1.60
2019-05-02T05:59:00.524Z,1.90
2019-05-02T06:01:34.477Z,1.97
2019-05-02T06:03:59.309Z,1.80
2019-05-02T06:06:27.858Z,2.03
2019-05-02T06:08:56.455Z,1.57
2019-05-02T06:11:25.006Z,1.60
2019-05-02T06:13:53.633Z,1.60
2019-05-02T06:16:22.199Z,1.93
2019-05-02T06:18:50.818Z,1.50
2019-05-02T06:21:19.442Z,1.70
2019-05-02T06:23:48.022Z,1.63
2019-05-02T06:26:16.585Z,1.60
2019-05-02T06:28:45.138Z,1.20
2019-05-02T06:31:15.463Z,1.90
2019-05-02T06:33:43.901Z,1.70
2019-05-02T06:36:12.454Z,1.40
2019-05-02T06:38:41.104Z,1.30
2019-05-02T06:41:09.670Z,1.50
2019-05-02T06:43:41.099Z,1.40
2019-05-02T06:46:16.101Z,1.60
2019-05-02T06:48:38.714Z,1.60
2019-05-02T06:51:10.994Z,1.80
2019-05-02T06:53:41.417Z,1.97
2019-05-02T06:56:07.949Z,2.07
2019-05-02T06:58:42.095Z,1.53
2019-05-02T07:01:08.546Z,1.40
2019-05-02T07:03:41.463Z,1.60
2019-05-02T07:06:07.781Z,1.50
2019-05-02T07:08:36.593Z,1.63
2019-05-02T07:11:06.572Z,1.70
2019-05-02T07:13:36.194Z,1.50
2019-05-02T07:16:16.252Z,1.83
2019-05-02T07:18:47.656Z,1.57
2019-05-02T07:21:17.794Z,1.73
2019-05-02T07:23:48.547Z,1.53
2019-05-02T07:26:20.883Z,1.70
2019-05-02T07:28:47.466Z,1.53
2019-05-02T07:31:16.675Z,1.80
2019-05-02T07:33:45.304Z,1.60
2019-05-02T07:36:13.861Z,1.47
2019-05-02T07:38:42.441Z,1.40
2019-05-02T07:41:11.526Z,1.70
2019-05-02T07:43:40.095Z,1.50
2019-05-02T07:46:08.664Z,1.60
2019-05-02T07:48:37.218Z,1.50
2019-05-02T07:51:05.836Z,1.30
2019-05-02T07:53:34.511Z,1.40
2019-05-02T07:56:03.134Z,1.40
2019-05-02T07:58:31.674Z,1.50
2019-05-02T08:01:00.264Z,1.20
2019-05-02T08:03:29.337Z,1.23
2019-05-02T08:05:59.947Z,0.70
2019-05-02T08:08:29.858Z,0.80
2019-05-02T08:11:01.859Z,0.43
2019-05-02T08:13:31.395Z,0.90
2019-05-02T08:15:59.442Z,0.50
2019-05-02T08:18:30.244Z,0.47
2019-05-02T08:20:58.660Z,0.77
2019-05-02T08:23:27.855Z,0.60
2019-05-02T08:25:56.974Z,0.60
2019-05-02T08:28:27.189Z,0.70
2019-05-02T08:30:57.447Z,0.77
2019-05-02T08:33:29.248Z,0.67
2019-05-02T08:35:56.349Z,0.80
2019-05-02T08:38:24.941Z,0.70
2019-05-02T08:40:53.681Z,0.73
2019-05-02T08:43:22.306Z,0.87
2019-05-02T08:45:51.017Z,0.80
2019-05-02T08:48:22.481Z,0.50
2019-05-02T08:50:49.843Z,0.60
2019-05-02T08:53:19.854Z,0.70
2019-05-02T08:55:48.614Z,0.73
2019-05-02T08:58:17.208Z,0.80
2019-05-02T09:00:47.408Z,0.60
2019-05-02T09:03:15.994Z,0.67
2019-05-02T09:05:45.991Z,0.90
2019-05-02T09:08:16.651Z,0.90
2019-05-02T09:10:45.740Z,1.10
2019-05-02T09:13:17.917Z,1.00
2019-05-02T09:15:49.620Z,0.90
2019-05-02T09:18:14.835Z,0.80
2019-05-02T09:20:47.085Z,0.80
2019-05-02T09:23:13.582Z,1.00
2019-05-02T09:25:43.014Z,0.90
2019-05-02T09:28:12.529Z,1.13
2019-05-02T09:30:41.918Z,0.90
2019-05-02T09:33:11.712Z,1.20
2019-05-02T09:35:42.167Z,0.80
2019-05-02T09:38:12.483Z,0.73
2019-05-02T09:40:42.606Z,1.10
2019-05-02T09:43:12.233Z,0.80
2019-05-02T09:45:41.812Z,0.90
2019-05-02T09:48:12.550Z,0.70
2019-05-02T09:50:42.215Z,0.70
2019-05-02T09:53:13.174Z,0.80
2019-05-02T09:55:49.133Z,0.77
2019-05-02T09:58:19.511Z,0.77
2019-05-02T10:00:52.592Z,0.70
2019-05-02T10:03:22.575Z,0.60
2019-05-02T10:05:52.374Z,0.90
2019-05-02T10:08:22.987Z,0.73
2019-05-02T10:10:52.425Z,0.73
2019-05-02T10:13:22.846Z,0.47
2019-05-02T10:15:52.788Z,0.80
2019-05-02T10:18:28.625Z,0.77
2019-05-02T10:20:52.494Z,0.60
2019-05-02T10:23:23.416Z,0.90
2019-05-02T10:25:52.309Z,0.57
2019-05-02T10:28:22.812Z,0.63
2019-05-02T10:30:52.565Z,0.90
2019-05-02T10:33:22.554Z,0.80
2019-05-02T10:35:52.518Z,0.80
2019-05-02T10:38:22.784Z,1.20
2019-05-02T10:40:54.167Z,0.90
2019-05-02T10:43:22.246Z,0.90
2019-05-02T10:45:56.584Z,0.70
2019-05-02T10:48:28.449Z,0.90
2019-05-02T10:51:13.407Z,1.03
2019-05-02T10:53:42.496Z,0.90
2019-05-02T10:56:11.772Z,2.30
2019-05-02T10:58:42.553Z,0.87
2019-05-02T11:01:13.290Z,1.20
2019-05-02T11:03:52.386Z,1.23
2019-05-02T11:06:22.240Z,1.20
2019-05-02T11:08:52.397Z,1.00
2019-05-02T11:11:22.107Z,0.80
2019-05-02T11:14:00.708Z,0.90
2019-05-02T11:16:38.406Z,0.90
2019-05-02T11:19:13.120Z,1.20
2019-05-02T11:21:53.527Z,0.73
2019-05-02T11:24:14.215Z,0.93
2019-05-02T11:26:42.944Z,1.53
2019-05-02T11:29:12.131Z,1.20
2019-05-02T11:31:42.754Z,1.30
2019-05-02T11:34:12.458Z,2.80
2019-05-02T11:36:42.032Z,1.60
2019-05-02T11:39:20.437Z,1.00
2019-05-02T11:41:42.213Z,1.63
2019-05-02T11:44:12.140Z,1.40
2019-05-02T11:46:46.760Z,1.23
2019-05-02T11:49:12.422Z,1.50
2019-05-02T11:51:42.141Z,1.80
2019-05-02T11:54:12.900Z,1.20
2019-05-02T11:56:49.045Z,1.40
2019-05-02T11:59:14.770Z,1.20
2019-05-02T12:01:56.235Z,1.10
2019-05-02T12:04:16.876Z,1.10
2019-05-02T12:06:44.066Z,1.10
2019-05-02T12:09:13.442Z,1.17
2019-05-02T12:11:41.965Z,1.10
2019-05-02T12:14:12.349Z,1.40
2019-05-02T12:16:43.056Z,1.30
2019-05-02T12:19:12.639Z,1.07
2019-05-02T12:21:43.006Z,1.10
2019-05-02T12:24:12.684Z,1.33
2019-05-02T12:26:42.001Z,1.20
2019-05-02T12:29:12.193Z,1.20
2019-05-02T12:31:42.667Z,1.27
2019-05-02T12:34:12.019Z,1.10
2019-05-02T12:36:42.730Z,0.93
2019-05-02T12:39:12.631Z,1.30
2019-05-02T12:41:42.276Z,1.10
2019-05-02T12:44:11.762Z,1.13
2019-05-02T12:46:42.169Z,1.10
2019-05-02T12:49:22.642Z,1.00
2019-05-02T12:51:42.905Z,1.00
2019-05-02T12:54:12.387Z,0.80
2019-05-02T12:56:41.845Z,0.70
2019-05-02T12:59:11.853Z,1.03
2019-05-02T13:01:42.169Z,1.07
2019-05-02T13:04:12.826Z,0.97
2019-05-02T13:06:42.163Z,0.93
2019-05-02T13:09:12.999Z,1.07
2019-05-02T13:11:45.919Z,1.13
2019-05-02T13:14:19.642Z,0.90
2019-05-02T13:16:48.096Z,0.90
2019-05-02T13:19:17.191Z,0.90
2019-05-02T13:21:59.459Z,0.90
2019-05-02T13:24:29.480Z,0.97
2019-05-02T13:26:59.720Z,1.10
2019-05-02T13:29:32.021Z,1.20
2019-05-02T13:32:08.636Z,1.00
2019-05-02T13:34:54.151Z,1.10
2019-05-02T13:37:22.943Z,0.93
2019-05-02T13:39:53.285Z,0.90
2019-05-02T13:42:22.021Z,0.97
2019-05-02T13:44:53.349Z,0.93
2019-05-02T13:47:24.510Z,0.73
2019-05-02T13:49:56.944Z,1.00
2019-05-02T13:52:23.424Z,1.00
2019-05-02T13:54:53.650Z,1.03
2019-05-02T13:57:22.660Z,0.87
2019-05-02T13:59:52.550Z,1.10
2019-05-02T14:02:33.730Z,0.80
2019-05-02T14:05:02.447Z,0.90
2019-05-02T14:07:32.620Z,0.90
2019-05-02T14:10:04.330Z,0.70
2019-05-02T14:12:49.339Z,0.90
2019-05-02T14:15:21.946Z,0.80
2019-05-02T14:17:52.358Z,1.00
2019-05-02T14:20:22.415Z,0.90
2019-05-02T14:22:52.736Z,0.80
2019-05-02T14:25:22.419Z,0.90
2019-05-02T14:27:55.322Z,0.70
2019-05-02T14:30:36.190Z,0.83
2019-05-02T14:32:54.324Z,0.63
2019-05-02T14:35:28.345Z,0.90
2019-05-02T14:38:13.565Z,0.90
2019-05-02T14:40:52.037Z,0.90
2019-05-02T14:43:44.535Z,0.80
2019-05-02T14:46:08.865Z,0.97
2019-05-02T14:48:45.039Z,1.27
2019-05-02T14:51:11.990Z,0.57
2019-05-02T14:53:42.958Z,0.80
2019-05-02T14:56:12.927Z,0.80
2019-05-02T14:58:42.704Z,0.90
2019-05-02T15:01:16.958Z,0.70
2019-05-02T15:03:43.065Z,0.90
2019-05-02T15:06:11.804Z,0.60
2019-05-02T15:08:43.515Z,0.90
2019-05-02T15:11:12.555Z,0.83
2019-05-02T15:13:41.745Z,0.80
2019-05-02T15:16:17.680Z,1.07
2019-05-02T15:18:42.403Z,0.67
2019-05-02T15:21:16.350Z,0.80
2019-05-02T15:23:43.603Z,0.73
2019-05-02T15:26:14.045Z,0.73
2019-05-02T15:28:42.434Z,0.80
2019-05-02T15:31:19.085Z,0.70
2019-05-02T15:33:51.822Z,0.77
2019-05-02T15:36:22.063Z,0.90
2019-05-02T15:38:52.635Z,0.80
2019-05-02T15:41:21.892Z,0.87
2019-05-02T15:43:52.406Z,0.93
2019-05-02T15:46:25.544Z,0.90
2019-05-02T15:48:51.969Z,0.67
2019-05-02T15:51:22.969Z,0.70
2019-05-02T15:54:04.991Z,0.80
2019-05-02T15:56:24.404Z,0.70
2019-05-02T15:58:53.563Z,1.10
2019-05-02T16:01:26.600Z,0.93
2019-05-02T16:03:56.782Z,0.90
2019-05-02T16:06:30.784Z,1.00
2019-05-02T16:08:55.714Z,1.10
2019-05-02T16:11:24.687Z,1.00
2019-05-02T16:13:55.903Z,0.97
2019-05-02T16:16:23.530Z,0.80
2019-05-02T16:18:52.536Z,0.90
2019-05-02T16:21:28.907Z,1.10
2019-05-02T16:24:14.721Z,1.00
2019-05-02T16:26:42.735Z,0.83
2019-05-02T16:29:19.463Z,1.10
2019-05-02T16:31:45.052Z,1.03
2019-05-02T16:34:15.527Z,0.87
2019-05-02T16:36:44.158Z,0.93
2019-05-02T16:39:13.658Z,1.00
2019-05-02T16:41:49.307Z,1.20
2019-05-02T16:44:13.290Z,0.70
2019-05-02T16:46:43.814Z,1.50
2019-05-02T16:49:15.625Z,1.00
2019-05-02T16:51:43.158Z,0.90
2019-05-02T16:54:12.712Z,1.37
2019-05-02T16:56:45.705Z,1.23
2019-05-02T16:59:12.618Z,2.13
2019-05-02T17:01:42.511Z,1.10
2019-05-02T17:04:12.904Z,0.90
2019-05-02T17:06:42.615Z,0.87
2019-05-02T17:09:21.694Z,1.43
2019-05-02T17:11:52.628Z,1.23
2019-05-02T17:14:22.072Z,1.00
2019-05-02T17:16:52.412Z,1.10
2019-05-02T17:19:21.588Z,0.83
2019-05-02T17:21:53.824Z,1.00
2019-05-02T17:24:22.602Z,1.30
2019-05-02T17:26:51.900Z,1.10
2019-05-02T17:29:21.390Z,1.10
2019-05-02T17:31:55.354Z,1.10
2019-05-02T17:34:24.480Z,1.13
2019-05-02T17:36:51.918Z,1.10
2019-05-02T17:39:22.301Z,0.87
2019-05-02T17:41:52.393Z,0.87
2019-05-02T17:44:24.470Z,0.90
2019-05-02T17:46:58.348Z,1.00
2019-05-02T17:49:23.614Z,1.00
2019-05-02T17:52:11.344Z,1.00
2019-05-02T17:54:42.231Z,1.00
2019-05-02T17:57:11.853Z,1.90
2019-05-02T17:59:42.577Z,1.10
2019-05-02T18:02:21.721Z,1.10
2019-05-02T18:04:55.703Z,1.10
2019-05-02T18:07:25.294Z,1.00
2019-05-02T18:09:52.723Z,1.10
2019-05-02T18:12:23.033Z,1.30
2019-05-02T18:14:59.124Z,1.00
2019-05-02T18:17:22.042Z,1.20
2019-05-02T18:19:52.092Z,1.10
2019-05-02T18:22:24.187Z,1.00
2019-05-02T18:24:52.648Z,1.00
2019-05-02T18:27:22.173Z,1.00
2019-05-02T18:29:51.697Z,1.30
2019-05-02T18:32:24.455Z,1.03
2019-05-02T18:34:51.969Z,1.20
2019-05-02T18:37:21.875Z,1.10
2019-05-02T18:39:55.268Z,1.10
2019-05-02T18:42:22.068Z,1.20
2019-05-02T18:44:53.155Z,1.00
2019-05-02T18:47:24.502Z,1.20
2019-05-02T18:49:53.813Z,1.23
2019-05-02T18:52:23.850Z,1.27
2019-05-02T18:54:52.515Z,0.80
2019-05-02T18:57:24.455Z,1.10
2019-05-02T18:59:51.983Z,1.00
2019-05-02T19:02:21.646Z,1.03
2019-05-02T19:04:51.621Z,1.10
2019-05-02T19:07:30.881Z,1.07
2019-05-02T19:09:51.901Z,1.17
2019-05-02T19:12:25.386Z,1.07
2019-05-02T19:14:52.793Z,0.90
2019-05-02T19:17:21.934Z,1.10
2019-05-02T19:19:52.593Z,0.90
2019-05-02T19:22:22.437Z,1.10
2019-05-02T19:24:52.371Z,1.10
2019-05-02T19:27:38.898Z,1.00
2019-05-02T19:30:08.646Z,0.80
2019-05-02T19:32:37.271Z,1.20
2019-05-02T19:35:07.125Z,0.80
2019-05-02T19:37:43.914Z,1.30
2019-05-02T19:40:09.780Z,1.13
2019-05-02T19:42:39.248Z,1.00
2019-05-02T19:45:11.579Z,1.03
2019-05-02T19:47:38.207Z,0.97
2019-05-02T19:50:26.381Z,1.10
2019-05-02T19:53:01.175Z,1.10
2019-05-02T19:55:24.182Z,0.87
2019-05-02T19:57:56.691Z,0.80
2019-05-02T20:00:23.129Z,1.10
2019-05-02T20:02:52.248Z,1.20
2019-05-02T20:05:25.529Z,0.50
2019-05-02T20:07:51.964Z,1.17
2019-05-02T20:10:22.730Z,1.00
2019-05-02T20:12:52.767Z,0.73
2019-05-02T20:15:27.014Z,1.00
2019-05-02T20:18:00.436Z,0.90
2019-05-02T20:20:46.742Z,1.30
2019-05-02T20:23:18.519Z,0.83
2019-05-02T20:25:46.216Z,0.90
2019-05-02T20:28:14.889Z,1.00
2019-05-02T20:30:43.643Z,0.90
2019-05-02T20:33:12.879Z,0.90
2019-05-02T20:35:42.128Z,1.07
2019-05-02T20:38:11.754Z,0.83
2019-05-02T20:40:42.640Z,0.90
2019-05-02T20:43:12.203Z,1.00
2019-05-02T20:45:40.891Z,1.00
2019-05-02T20:48:09.506Z,1.00
2019-05-02T20:50:38.042Z,1.10
2019-05-02T20:53:06.680Z,0.67
2019-05-02T20:55:36.833Z,1.00
2019-05-02T20:58:05.450Z,1.10
2019-05-02T21:00:34.354Z,1.00
2019-05-02T21:03:02.995Z,1.20
2019-05-02T21:05:33.279Z,1.10
2019-05-02T21:08:12.314Z,1.23
2019-05-02T21:10:45.378Z,1.00
2019-05-02T21:13:14.799Z,1.00
2019-05-02T21:15:43.527Z,1.00
2019-05-02T21:18:12.089Z,0.87
2019-05-02T21:20:41.821Z,0.93
2019-05-02T21:23:10.736Z,0.80
2019-05-02T21:25:39.383Z,1.03
2019-05-02T21:28:08.036Z,0.73
2019-05-02T21:30:36.922Z,1.00
2019-05-02T21:33:05.643Z,0.90
2019-05-02T21:35:34.182Z,0.90
2019-05-02T21:38:02.815Z,0.90
2019-05-02T21:40:32.744Z,1.00
2019-05-02T21:43:02.474Z,0.80
2019-05-02T21:45:31.672Z,1.07
2019-05-02T21:48:02.239Z,0.70
2019-05-02T21:50:42.739Z,0.80
2019-05-02T21:53:25.005Z,0.90
2019-05-02T21:56:02.690Z,0.80
2019-05-02T21:58:32.330Z,0.90
2019-05-02T22:01:05.966Z,0.90
2019-05-02T22:03:34.614Z,1.00
2019-05-02T22:06:03.806Z,1.10
2019-05-02T22:08:32.447Z,0.90
2019-05-02T22:11:01.048Z,0.90
2019-05-02T22:13:31.590Z,1.15
2019-05-02T22:16:02.201Z,1.00
2019-05-02T22:18:32.164Z,1.00
2019-05-02T22:21:01.701Z,0.93
2019-05-02T22:23:31.776Z,0.83
2019-05-02T22:26:02.117Z,1.00
2019-05-02T22:28:32.704Z,0.97
2019-05-02T22:31:03.238Z,0.80
2019-05-02T22:33:32.799Z,0.93
2019-05-02T22:36:01.985Z,1.00
2019-05-02T22:38:35.498Z,1.00
2019-05-02T22:41:04.090Z,1.53
2019-05-02T22:43:32.783Z,1.00
2019-05-02T22:46:02.962Z,1.30
2019-05-02T22:48:31.893Z,1.00
2019-05-02T22:51:00.666Z,1.27
2019-05-02T22:53:29.217Z,0.97
2019-05-02T22:55:57.780Z,1.10
2019-05-02T22:58:26.354Z,0.80
2019-05-02T23:00:54.966Z,0.80
2019-05-02T23:03:24.136Z,1.00
2019-05-02T23:05:53.141Z,1.00
2019-05-02T23:08:22.029Z,1.00
2019-05-02T23:10:51.954Z,2.43
2019-05-02T23:13:22.058Z,0.90
2019-05-02T23:15:52.169Z,0.80
2019-05-02T23:18:22.803Z,1.10
2019-05-02T23:20:52.607Z,1.10
2019-05-02T23:23:24.061Z,1.10
2019-05-02T23:26:05.046Z,0.90
2019-05-02T23:28:35.237Z,0.97
2019-05-02T23:31:03.848Z,0.90
2019-05-02T23:33:51.596Z,1.00
2019-05-02T23:36:20.339Z,1.00
2019-05-02T23:38:48.887Z,1.00
2019-05-02T23:41:17.473Z,1.07
2019-05-02T23:43:46.095Z,1.03
2019-05-02T23:46:14.644Z,1.20
2019-05-02T23:48:43.279Z,0.83
2019-05-02T23:51:12.115Z,1.10
2019-05-02T23:53:42.926Z,0.90
2019-05-02T23:56:13.161Z,1.10
2019-05-02T23:58:42.615Z,1.13
